Date,TemperatureHighF,TemperatureAvgF,TemperatureLowF,DewpointHighF,DewpointAvgF,DewpointLowF,HumidityHigh,HumidityAvg,HumidityLow,PressureMaxIn,PressureMinIn,WindSpeedMaxMPH,WindSpeedAvgMPH,GustSpeedMaxMPH,PrecipitationSumIn
2013-1-23,8.0,6.9,6.0,-6.0,-6.8,-8.0,57,52,47,30.12,30.11,1,0,0,0.00
2013-1-24,18.0,9.6,0.0,-4.0,-5.4,-7.0,76,52,34,30.22,30.06,5,2,0,0.00
2013-1-25,22.0,15.1,6.0,12.0,-2.1,-8.0,81,47,32,30.29,30.04,3,1,0,0.00
2013-1-26,23.0,15.5,6.0,13.0,3.9,-4.0,85,62,36,30.22,29.98,5,2,0,0.00
2013-1-27,29.0,18.0,7.0,8.0,4.3,1.0,79,57,34,30.45,30.22,4,1,0,0.00
2013-1-28,32.0,23.2,14.0,25.0,15.9,7.0,90,75,41,30.45,29.99,2,0,0,0.00
2013-1-29,34.0,30.0,26.0,31.0,27.3,23.0,92,90,88,30.17,29.98,1,0,0,0.00
2013-1-30,58.0,45.9,32.0,56.0,44.1,30.0,96,94,91,30.13,29.47,4,1,0,0.00
2013-1-31,57.0,42.5,31.0,56.0,31.0,16.0,95,65,44,29.59,28.99,6,3,0,0.00
2013-2-1,31.0,27.6,21.0,18.0,11.8,7.0,72,52,38,30.07,29.59,5,2,0,0.00
2013-2-2,29.0,23.5,16.0,15.0,9.4,5.0,69,55,43,30.23,30.03,3,1,0,0.00
2013-2-3,28.0,24.2,18.0,21.0,18.7,14.0,87,80,64,30.04,29.72,2,0,0,0.00
2013-2-4,29.0,22.0,14.0,20.0,12.8,8.0,87,69,43,29.93,29.71,4,1,0,0.00
2013-2-5,26.0,23.5,20.0,21.0,15.7,10.0,87,72,63,30.00,29.91,1,0,0,0.00
2013-2-6,36.0,28.5,23.0,26.0,18.8,7.0,90,69,45,30.27,29.89,3,1,0,0.00
2013-2-7,30.0,23.3,14.0,13.0,7.9,5.0,77,53,34,30.50,30.27,2,0,0,0.00
2013-2-8,32.0,27.3,19.0,30.0,23.0,11.0,93,84,60,30.45,29.57,8,2,0,0.00
2013-2-9,23.0,19.0,14.0,20.0,16.2,10.0,90,88,85,30.18,29.53,8,5,0,0.00
2013-2-10,32.0,15.8,-2.0,26.0,11.5,-6.0,86,83,76,30.37,30.19,4,1,0,0.00
2013-2-11,42.0,29.5,9.0,41.0,27.3,6.0,95,91,86,30.33,29.60,1,0,0,0.00
2013-2-12,43.0,36.6,30.0,38.0,30.0,25.0,95,78,57,29.88,29.61,5,1,0,0.00
2013-2-13,41.0,32.1,24.0,27.0,24.7,21.0,89,75,54,29.85,29.67,2,0,0,0.00
2013-2-14,31.0,30.5,29.0,27.0,26.7,26.0,88,86,81,29.72,29.68,0,0,0,0.00
2013-2-28,44.0,36.9,30.0,38.0,33.4,28.0,92,87,79,29.54,29.52,1,0,0,0.00
2013-3-1,30.0,30.0,30.0,28.0,28.0,28.0,93,93,92,29.52,29.52,0,0,0,0.00
2013-3-11,52.0,44.2,38.0,38.0,37.1,35.0,91,77,54,30.16,30.14,1,0,0,0.00
2013-3-12,42.0,39.4,37.0,40.0,37.4,35.0,94,93,91,30.14,30.01,0,0,0,0.00
2013-3-21,33.0,31.8,31.0,27.0,27.0,27.0,86,83,78,29.61,29.60,2,1,0,0.00
2013-6-15,76.0,64.9,55.0,55.0,51.8,45.0,86,66,36,29.95,29.88,1,0,0,0.00
2013-6-16,73.0,61.8,49.0,64.0,56.7,46.0,93,84,67,29.95,29.72,1,0,0,0.00
2013-6-17,87.0,69.1,58.0,69.0,61.4,56.0,95,79,45,29.91,29.78,4,0,0,0.00
2013-6-18,79.0,63.3,58.0,69.0,60.1,56.0,95,90,65,29.93,29.83,4,0,0,0.00
2013-6-19,76.0,62.4,54.0,61.0,54.9,51.0,95,79,43,30.14,29.89,2,0,0,0.00
2013-6-20,80.0,60.2,49.0,59.0,51.4,46.0,94,77,39,30.26,30.14,1,0,0,0.00
2013-6-22,85.0,77.1,66.0,68.0,64.3,59.0,79,66,50,30.22,30.12,2,0,0,0.00
2013-6-23,90.0,73.9,62.0,76.0,66.4,57.0,90,78,55,30.17,30.01,2,0,0,0.00
2013-6-24,93.0,77.5,69.0,77.0,70.5,66.0,94,80,53,30.04,29.88,3,0,0,0.00
2013-6-25,89.0,74.4,66.0,76.0,69.4,64.0,95,86,60,29.94,29.74,1,0,0,0.00
2013-6-26,87.0,73.6,67.0,74.0,69.4,65.0,96,87,59,29.84,29.73,2,0,0,0.00
2013-6-27,71.0,67.4,65.0,68.0,65.2,62.0,95,92,88,29.85,29.74,2,0,0,0.00
2013-6-28,82.0,70.8,64.0,75.0,68.3,63.0,96,92,73,29.74,29.49,2,0,0,0.00
2013-6-29,85.0,74.3,70.0,73.0,69.3,67.0,95,85,64,29.72,29.50,2,0,0,0.00
2013-6-30,86.0,75.2,70.0,76.0,70.7,67.0,93,86,69,29.93,29.72,2,0,0,0.00
2013-7-1,81.0,74.2,71.0,76.0,71.6,69.0,95,92,81,30.08,29.93,1,0,0,0.00
2013-7-2,83.0,75.6,72.0,76.0,72.2,70.0,94,90,76,30.17,30.07,1,0,0,0.00
2013-7-3,89.0,77.2,70.0,77.0,72.4,68.0,95,86,67,30.21,30.14,1,0,0,0.00
2013-7-4,93.0,80.5,72.0,79.0,74.0,70.0,95,82,58,30.21,30.10,2,0,0,0.00
2013-7-5,95.0,80.4,72.0,79.0,74.1,70.0,94,82,57,30.16,30.04,2,0,0,0.00
2013-7-6,92.0,79.4,72.0,77.0,73.4,70.0,94,83,58,30.09,29.98,2,0,0,0.00
2013-7-7,93.0,77.6,69.0,80.0,72.8,67.0,94,86,58,30.02,29.91,1,0,0,0.00
2013-7-8,89.0,74.6,69.0,77.0,69.7,-99.9,96,89,62,30.04,29.90,2,0,0,0.00
2013-7-9,76.0,70.3,67.0,73.0,67.8,65.0,95,92,80,30.09,30.03,1,0,0,0.00
2013-7-10,69.0,68.5,68.0,67.0,66.5,66.0,93,93,92,30.06,30.00,0,0,0,0.00
2013-7-27,82.0,73.8,64.0,72.0,67.7,61.0,96,82,61,30.05,29.98,1,0,1,0.00
2013-7-28,86.0,72.8,63.0,75.0,67.9,61.0,94,85,58,30.01,29.94,2,0,0,0.00
2013-7-29,86.0,72.7,65.0,75.0,68.5,63.0,94,87,63,30.03,29.95,1,0,0,0.00
2013-7-30,83.0,69.0,60.0,67.0,61.3,58.0,94,78,47,30.10,30.03,2,0,0,0.00
2013-7-31,81.0,67.9,57.0,68.0,61.3,54.0,94,81,49,30.14,30.03,1,0,0,0.00
2013-8-1,79.0,66.8,59.0,70.0,62.8,57.0,95,87,68,30.05,29.87,1,0,0,0.00
2013-8-2,82.0,70.5,65.0,70.0,64.7,62.0,95,83,52,29.88,29.79,2,0,0,0.00
2013-8-3,78.0,69.1,63.0,68.0,63.9,60.0,94,84,66,29.87,29.78,1,0,0,0.00
2013-8-4,81.0,65.8,55.0,62.0,57.8,53.0,94,78,45,29.89,29.77,2,0,0,0.00
2013-8-5,77.0,62.0,52.0,56.0,51.1,45.0,94,72,35,30.04,29.89,2,0,0,0.00
2013-8-6,80.0,61.1,47.0,64.0,53.6,45.0,93,78,49,30.14,30.04,1,0,0,0.00
2013-8-29,65.0,61.8,60.0,61.0,58.8,57.0,92,90,88,30.06,30.02,1,0,0,0.00
2013-8-30,80.0,67.5,60.0,71.0,63.9,58.0,93,88,73,30.03,29.83,1,0,0,0.00
2013-8-31,77.0,72.3,67.0,74.0,70.0,65.0,96,93,87,29.83,29.79,0,0,0,0.00
2013-9-1,77.0,71.4,69.0,75.0,67.9,-99.9,96,93,93,29.86,29.79,1,0,0,0.00
2013-9-2,78.0,73.2,71.0,75.0,71.4,69.0,96,94,91,29.86,29.70,1,0,0,0.00
2013-9-3,74.0,70.1,61.0,72.0,68.4,59.0,96,94,92,29.82,29.69,0,0,0,0.00
2013-9-4,78.0,64.7,56.0,65.0,59.4,54.0,96,84,53,29.92,29.81,1,0,0,0.00
2013-9-5,61.0,61.0,61.0,58.0,58.0,58.0,91,91,91,29.92,29.92,0,0,0,0.00